createdAt,value
2022-09-11T10:15:53.848Z,1011.14
2022-09-11T10:16:53.721Z,1011.11
2022-09-11T10:17:53.687Z,1011.12
2022-09-11T10:18:53.679Z,1011.12
2022-09-11T10:19:53.663Z,1011.17
2022-09-11T10:20:53.636Z,1011.13
2022-09-11T10:21:53.630Z,1011.11
2022-09-11T10:22:53.626Z,1011.18
2022-09-11T10:23:53.591Z,1011.18
2022-09-11T10:24:53.576Z,1011.15
2022-09-11T10:26:55.338Z,1011.13
2022-09-11T10:27:55.334Z,1011.20
2022-09-11T10:28:55.293Z,1011.18
2022-09-11T10:29:55.289Z,1011.13
2022-09-11T10:33:36.840Z,1011.19
2022-09-11T10:34:36.821Z,1011.17
2022-09-11T10:35:36.796Z,1011.25
2022-09-11T10:36:36.779Z,1011.22
2022-09-11T10:37:36.786Z,1011.24
2022-09-11T10:38:41.136Z,1011.23
2022-09-11T10:39:36.782Z,1011.20
2022-09-11T10:40:36.717Z,1011.23
2022-09-11T10:41:36.713Z,1011.16
2022-09-11T10:42:36.709Z,1011.18
2022-09-11T10:43:36.685Z,1011.20
2022-09-11T10:44:36.668Z,1011.16
2022-09-11T10:45:36.662Z,1011.11
2022-09-11T10:46:37.496Z,1011.10
2022-09-11T10:47:36.629Z,1011.15
2022-09-11T10:48:53.416Z,1011.17
2022-09-11T11:05:09.534Z,1011.09
2022-09-11T11:06:47.719Z,1011.08
2022-09-11T11:07:47.712Z,1011.06
2022-09-11T11:08:47.717Z,1011.06
2022-09-11T11:13:17.282Z,1010.91
2022-09-11T11:14:17.244Z,1010.93
2022-09-11T11:15:17.229Z,1010.91
2022-09-11T11:16:17.246Z,1010.89
2022-09-11T11:17:17.198Z,1010.89
2022-09-11T11:18:17.198Z,1010.89
2022-09-11T11:19:17.168Z,1010.88
2022-09-11T11:20:17.161Z,1010.86
2022-09-11T11:21:17.148Z,1010.86
2022-09-11T11:30:23.700Z,1010.85
2022-09-11T11:31:23.739Z,1010.84
2022-09-11T11:32:23.649Z,1010.86
2022-09-11T11:33:23.644Z,1010.84
2022-09-11T11:34:23.625Z,1010.89
2022-09-11T11:35:23.604Z,1010.92
2022-09-11T11:36:23.588Z,1010.83
2022-09-11T11:38:42.117Z,1010.93
2022-09-11T11:39:42.066Z,1010.94
2022-09-11T11:40:42.000Z,1010.91
2022-09-11T11:41:41.997Z,1010.91
2022-09-11T11:42:41.979Z,1010.93
2022-09-11T11:43:41.969Z,1010.90
2022-09-11T11:44:41.953Z,1010.91
2022-09-11T11:45:41.959Z,1010.93
2022-09-11T11:46:41.913Z,1010.95
2022-09-11T11:47:41.924Z,1010.95
2022-09-11T11:48:41.928Z,1010.96
2022-09-11T11:49:41.875Z,1010.96
2022-09-11T11:50:49.737Z,1010.97
2022-09-11T11:51:41.845Z,1010.94
2022-09-11T11:52:41.836Z,1011.00
2022-09-11T11:53:41.833Z,1011.01
2022-09-11T11:54:41.807Z,1010.99
2022-09-11T11:55:41.788Z,1010.97
2022-09-11T11:56:41.782Z,1010.95
2022-09-11T11:57:41.761Z,1010.90
2022-09-11T11:58:41.814Z,1010.93
2022-09-11T11:59:41.745Z,1010.91
2022-09-11T12:00:41.723Z,1010.93
2022-09-11T12:01:41.778Z,1010.96
2022-09-11T12:02:41.703Z,1010.92
2022-09-11T12:03:41.735Z,1011.02
2022-09-11T12:04:41.678Z,1011.05
2022-09-11T12:05:41.652Z,1011.06
2022-09-11T12:06:41.648Z,1011.08
2022-09-11T12:07:41.628Z,1011.04
2022-09-11T12:08:41.734Z,1011.03
2022-09-11T12:09:41.610Z,1010.99
2022-09-11T12:10:41.606Z,1010.98
2022-09-11T12:11:41.577Z,1011.01
2022-09-11T12:12:41.558Z,1011.00
2022-09-11T12:13:41.555Z,1011.07
2022-09-11T12:14:41.546Z,1010.97
2022-09-11T12:15:41.529Z,1011.03
2022-09-11T12:16:41.514Z,1010.99
2022-09-11T12:17:41.495Z,1011.00
2022-09-11T12:18:41.566Z,1011.02
2022-09-11T12:19:41.467Z,1010.99
2022-09-11T12:20:41.455Z,1011.04
2022-09-11T12:21:41.442Z,1011.03
2022-09-11T12:22:41.435Z,1010.92
2022-09-11T12:23:41.428Z,1010.99
2022-09-11T12:24:41.412Z,1010.86
2022-09-11T12:28:15.898Z,1010.97
2022-09-11T12:29:15.878Z,1010.95
2022-09-11T12:30:15.871Z,1010.79
2022-09-11T12:31:15.910Z,1010.90
2022-09-11T12:32:15.846Z,1010.95
2022-09-11T12:33:15.837Z,1011.00
2022-09-11T12:34:15.819Z,1010.91
2022-09-11T12:35:15.798Z,1010.95
2022-09-11T12:36:15.795Z,1010.93
2022-09-11T12:37:15.778Z,1010.90
2022-09-11T12:38:15.784Z,1010.79
2022-09-11T12:39:15.783Z,1010.83
2022-09-11T12:40:15.769Z,1010.91
2022-09-11T12:41:15.731Z,1010.92
2022-09-11T12:42:15.727Z,1010.95
2022-09-11T12:43:15.722Z,1010.93
2022-09-11T12:44:15.685Z,1010.77
2022-09-11T12:45:15.683Z,1010.88
2022-09-11T12:46:15.662Z,1010.84
2022-09-11T12:47:15.661Z,1010.88
2022-09-11T12:48:15.662Z,1010.89
2022-09-11T12:49:22.587Z,1010.97
2022-09-11T12:50:15.612Z,1010.95
2022-09-11T12:51:15.612Z,1010.87
2022-09-11T12:52:15.598Z,1010.91
2022-09-11T12:53:15.589Z,1010.91
2022-09-11T12:54:15.574Z,1010.78
2022-09-11T12:55:15.552Z,1010.78
2022-09-11T12:57:04.928Z,1010.76
2022-09-11T12:58:04.926Z,1010.87
2022-09-11T12:59:04.888Z,1010.83
2022-09-11T13:00:04.875Z,1010.90
2022-09-11T13:01:04.908Z,1010.86
2022-09-11T13:02:04.903Z,1010.83
2022-09-11T13:03:04.858Z,1010.82
2022-09-11T13:04:04.837Z,1010.79
2022-09-11T13:05:04.814Z,1010.82
2022-09-11T13:06:04.814Z,1010.79
2022-09-11T13:07:04.801Z,1010.78
2022-09-11T13:08:04.803Z,1010.70
2022-09-11T13:09:04.777Z,1010.67
2022-09-11T13:10:04.768Z,1010.66
2022-09-11T13:11:04.755Z,1010.65
2022-09-11T13:12:04.746Z,1010.64
2022-09-11T13:13:04.736Z,1010.57
2022-09-11T13:14:04.715Z,1010.63
2022-09-11T13:15:04.711Z,1010.56
2022-09-11T13:16:04.737Z,1010.57
2022-09-11T13:17:04.689Z,1010.55
2022-09-11T13:18:04.694Z,1010.56
2022-09-11T13:19:04.669Z,1010.50
2022-09-11T13:20:04.660Z,1010.53
2022-09-11T13:21:04.641Z,1010.50
2022-09-11T13:22:04.671Z,1010.48
2022-09-11T13:23:04.643Z,1010.52
2022-09-11T13:24:04.617Z,1010.49
2022-09-11T13:25:04.599Z,1010.48
2022-09-11T13:26:04.587Z,1010.48
2022-09-11T13:27:04.585Z,1010.50
2022-09-11T13:28:04.577Z,1010.46
2022-09-11T13:29:04.564Z,1010.47
2022-09-11T13:30:04.556Z,1010.41
2022-09-11T13:31:04.585Z,1010.46
2022-09-11T13:32:04.524Z,1010.46
2022-09-11T13:33:04.531Z,1010.47
2022-09-11T13:34:04.518Z,1010.45
2022-09-11T13:35:04.502Z,1010.45
2022-09-11T13:36:04.490Z,1010.47
2022-09-11T13:37:04.472Z,1010.42
2022-09-11T13:38:04.487Z,1010.44
2022-09-11T13:39:04.466Z,1010.42
2022-09-11T13:40:04.520Z,1010.40
2022-09-11T13:41:04.438Z,1010.45
2022-09-11T13:42:04.422Z,1010.39
2022-09-11T13:43:04.432Z,1010.37
2022-09-11T13:44:04.408Z,1010.36
2022-09-11T13:45:04.402Z,1010.40
2022-09-11T13:46:04.446Z,1010.37
2022-09-11T13:47:04.372Z,1010.36
2022-09-11T13:48:04.376Z,1010.38
2022-09-11T13:49:04.354Z,1010.34
2022-09-11T13:50:04.353Z,1010.31
2022-09-11T13:51:04.335Z,1010.33
2022-09-11T13:52:04.333Z,1010.28
2022-09-11T13:53:04.327Z,1010.26
2022-09-11T13:54:04.312Z,1010.27
2022-09-11T13:55:04.306Z,1010.21
2022-09-11T13:56:04.288Z,1010.21
2022-09-11T13:57:04.292Z,1010.17
2022-09-11T13:58:04.296Z,1010.19
2022-09-11T13:59:04.271Z,1010.27
2022-09-11T14:00:04.250Z,1010.22
2022-09-11T14:01:04.252Z,1010.22
2022-09-11T14:02:04.398Z,1010.22
2022-09-11T14:03:04.236Z,1010.17
2022-09-11T14:04:04.214Z,1010.19
2022-09-11T14:05:04.207Z,1010.15
2022-09-11T14:06:04.212Z,1010.17
2022-09-11T14:07:04.197Z,1010.16
2022-09-11T14:08:04.192Z,1010.18
2022-09-11T14:09:04.180Z,1010.22
2022-09-11T14:10:04.177Z,1010.21
2022-09-11T14:11:07.100Z,1010.20
2022-09-11T14:12:04.146Z,1010.23
2022-09-11T14:13:04.169Z,1010.23
2022-09-11T14:14:04.128Z,1010.32
2022-09-11T14:15:04.118Z,1010.35
2022-09-11T14:16:04.167Z,1010.33
2022-09-11T14:17:04.111Z,1010.32
2022-09-11T14:18:04.106Z,1010.30
2022-09-11T14:19:04.095Z,1010.28
2022-09-11T14:20:04.091Z,1010.28
2022-09-11T14:21:04.070Z,1010.29
2022-09-11T14:22:04.064Z,1010.33
2022-09-11T14:23:04.069Z,1010.34
2022-09-11T14:24:04.047Z,1010.31
2022-09-11T14:25:04.042Z,1010.28
2022-09-11T14:26:04.041Z,1010.24
2022-09-11T14:27:04.026Z,1010.20
2022-09-11T14:28:04.015Z,1010.15
2022-09-11T14:29:04.029Z,1009.94
2022-09-11T14:30:04.012Z,1009.94
2022-09-11T14:31:04.029Z,1010.01
2022-09-11T14:32:03.997Z,1010.06
2022-09-11T14:33:03.979Z,1010.01
2022-09-11T14:34:03.980Z,1009.94
2022-09-11T14:35:03.961Z,1009.92
2022-09-11T14:36:07.584Z,1010.02
2022-09-11T14:37:03.944Z,1010.03
2022-09-11T14:38:03.960Z,1010.01
2022-09-11T14:39:03.932Z,1009.99
2022-09-11T14:40:03.945Z,1009.97
2022-09-11T14:41:03.922Z,1010.02
2022-09-11T14:42:03.912Z,1009.95
2022-09-11T14:43:03.895Z,1009.97
2022-09-11T14:44:03.899Z,1009.96
2022-09-11T14:45:03.889Z,1009.97
2022-09-11T14:46:03.893Z,1009.95
2022-09-11T14:47:03.863Z,1009.97
2022-09-11T14:48:03.877Z,1009.95
2022-09-11T14:49:03.845Z,1009.95
2022-09-11T14:50:03.840Z,1009.94
2022-09-11T14:51:03.832Z,1009.95
2022-09-11T14:52:03.824Z,1009.94
2022-09-11T14:53:03.822Z,1009.92
2022-09-11T14:54:03.828Z,1009.95
2022-09-11T14:55:03.799Z,1009.94
2022-09-11T14:56:03.792Z,1009.91
2022-09-11T14:59:26.917Z,1009.83
2022-09-11T15:00:26.890Z,1009.83
2022-09-11T15:01:26.954Z,1009.84
2022-09-11T15:04:55.374Z,1009.76
2022-09-11T15:05:55.342Z,1009.75
2022-09-11T15:06:55.379Z,1009.73
2022-09-11T15:07:55.337Z,1009.71
2022-09-11T15:08:55.336Z,1009.70
2022-09-11T15:09:55.315Z,1009.68
2022-09-11T15:10:55.305Z,1009.70
2022-09-11T15:11:55.286Z,1009.64
2022-09-11T15:30:21.186Z,1009.43
2022-09-11T16:17:46.942Z,1009.44
2022-09-11T16:18:46.916Z,1009.38
2022-09-11T16:19:46.926Z,1009.41
2022-09-11T16:20:46.887Z,1009.37
2022-09-11T16:21:46.876Z,1009.40
2022-09-11T16:22:46.857Z,1009.48
2022-09-11T16:23:51.138Z,1009.44
